Time;durP1;ratioP1;P1;durP2;ratioP2;P2;SDS_P1;SDS_P2;PMS_P1;PMS_P2;Temp;Humidity;BMP_temperature;BMP_pressure;BME280_temperature;BME280_humidity;BME280_pressure;Samples;Min_cycle;Max_cycle;Signal;HPM_P1;HPM_P2
2023/06/24 00:01:38;;;;;;;0.32;0.32;;;17.80;99.90;;;;;;5113896;28;20364;-70
2023/06/24 00:04:04;;;;;;;0.40;0.40;;;17.70;99.90;;;;;;5113769;28;20036;-69
2023/06/24 00:06:29;;;;;;;0.40;0.40;;;17.70;99.90;;;;;;5113923;28;20085;-70
2023/06/24 00:09:00;;;;;;;0.40;0.40;;;17.70;99.90;;;;;;5113627;28;20558;-70
2023/06/24 00:11:30;;;;;;;0.40;0.40;;;17.70;99.90;;;;;;5113895;28;20044;-70
2023/06/24 00:13:56;;;;;;;0.40;0.40;;;17.60;99.90;;;;;;5113734;28;20050;-71
2023/06/24 00:16:26;;;;;;;0.53;0.53;;;17.50;99.90;;;;;;5116029;28;20031;-70
2023/06/24 00:18:54;;;;;;;0.40;0.40;;;17.50;99.90;;;;;;5117702;28;20089;-70
2023/06/24 00:21:19;;;;;;;0.40;0.40;;;17.50;99.90;;;;;;5117551;28;20104;-70
2023/06/24 00:23:46;;;;;;;0.40;0.40;;;17.40;99.90;;;;;;5117379;28;20043;-70
2023/06/24 00:26:11;;;;;;;0.40;0.40;;;17.40;99.90;;;;;;5117160;28;20439;-70
2023/06/24 00:28:37;;;;;;;0.40;0.40;;;17.40;99.90;;;;;;5117471;28;20044;-70
2023/06/24 00:31:03;;;;;;;0.50;0.50;;;17.30;99.90;;;;;;5117387;28;20531;-69
2023/06/24 00:33:29;;;;;;;0.38;0.38;;;17.30;99.90;;;;;;5117097;28;20471;-71
2023/06/24 00:35:56;;;;;;;0.60;0.60;;;17.20;99.90;;;;;;5116993;28;20147;-69
2023/06/24 00:38:22;;;;;;;0.55;0.55;;;17.20;99.90;;;;;;5117290;28;20044;-70
2023/06/24 00:40:48;;;;;;;0.40;0.40;;;17.20;99.90;;;;;;5117121;28;20387;-70
2023/06/24 00:43:13;;;;;;;0.40;0.40;;;17.10;99.90;;;;;;5117337;28;20035;-69
2023/06/24 00:45:39;;;;;;;0.40;0.40;;;17.10;99.90;;;;;;5115977;28;20039;-70
2023/06/24 00:48:05;;;;;;;0.30;0.30;;;17.10;99.90;;;;;;5117130;28;20496;-70
2023/06/24 00:50:31;;;;;;;0.40;0.40;;;17.00;99.90;;;;;;5116715;28;20042;-70
2023/06/24 00:52:57;;;;;;;0.40;0.40;;;17.00;99.90;;;;;;5117027;28;20047;-70
2023/06/24 00:55:23;;;;;;;0.40;0.40;;;16.90;99.90;;;;;;5116988;28;20445;-70
2023/06/24 00:57:51;;;;;;;1.05;0.60;;;16.90;99.90;;;;;;5117239;28;20379;-70
2023/06/24 01:00:24;;;;;;;0.40;0.40;;;16.80;99.90;;;;;;5117000;28;20102;-70
2023/06/24 01:02:51;;;;;;;0.40;0.40;;;16.90;99.90;;;;;;5116836;28;20044;-70
2023/06/24 01:05:17;;;;;;;0.40;0.40;;;16.80;99.90;;;;;;5116275;28;20047;-70
2023/06/24 01:07:43;;;;;;;0.40;0.40;;;16.80;99.90;;;;;;5115520;28;20379;-70
2023/06/24 01:10:12;;;;;;;0.40;0.40;;;16.80;99.90;;;;;;5116701;28;20032;-69
2023/06/24 01:12:40;;;;;;;0.40;0.40;;;16.80;99.90;;;;;;5116754;28;20047;-70
2023/06/24 01:15:07;;;;;;;0.40;0.40;;;16.80;99.90;;;;;;5116565;28;20044;-70
2023/06/24 01:17:36;;;;;;;0.65;0.65;;;16.70;99.90;;;;;;5116604;28;20101;-71
2023/06/24 01:20:05;;;;;;;0.40;0.40;;;16.70;99.90;;;;;;5116397;28;20062;-70
2023/06/24 01:23:04;;;;;;;0.60;0.60;;;16.60;99.90;;;;;;5116430;28;20371;-70
2023/06/24 01:26:07;;;;;;;0.50;0.50;;;16.60;99.90;;;;;;5116260;28;20046;-71
2023/06/24 01:29:14;;;;;;;0.40;0.40;;;16.50;99.90;;;;;;5115104;28;20126;-71
2023/06/24 01:31:46;;;;;;;0.40;0.40;;;16.40;99.90;;;;;;5116214;28;20036;-70
2023/06/24 01:34:48;;;;;;;0.40;0.40;;;16.50;99.90;;;;;;5116323;28;20047;-70
2023/06/24 01:37:39;;;;;;;0.40;0.40;;;16.50;99.90;;;;;;5116666;28;20031;-71
2023/06/24 01:40:09;;;;;;;0.30;0.30;;;16.30;99.90;;;;;;5116127;28;20054;-70
2023/06/24 01:42:38;;;;;;;0.38;0.38;;;16.30;99.90;;;;;;5115857;28;20051;-70
2023/06/24 01:45:08;;;;;;;0.40;0.40;;;16.30;99.90;;;;;;5115889;28;20528;-70
2023/06/24 01:47:35;;;;;;;0.50;0.50;;;16.30;99.90;;;;;;5115624;28;20036;-71
2023/06/24 01:50:03;;;;;;;0.40;0.40;;;16.30;99.90;;;;;;5115755;27;20067;-70
2023/06/24 01:52:30;;;;;;;0.40;0.40;;;16.30;99.90;;;;;;5114658;28;20051;-70
2023/06/24 01:54:58;;;;;;;0.30;0.30;;;16.30;99.90;;;;;;5115890;28;20103;-71
2023/06/24 01:57:25;;;;;;;0.60;0.60;;;16.20;99.90;;;;;;5114620;28;20046;-71
2023/06/24 01:59:54;;;;;;;0.40;0.40;;;16.20;99.90;;;;;;5115495;28;20043;-69
2023/06/24 02:02:21;;;;;;;0.40;0.40;;;16.20;99.90;;;;;;5115921;28;20028;-71
2023/06/24 02:04:49;;;;;;;0.40;0.40;;;16.20;99.90;;;;;;5113853;28;20060;-71
2023/06/24 02:07:16;;;;;;;0.40;0.40;;;16.10;99.90;;;;;;5115321;28;20044;-70
2023/06/24 02:09:45;;;;;;;0.50;0.50;;;16.10;99.90;;;;;;5115462;28;20047;-70
2023/06/24 02:12:12;;;;;;;0.40;0.40;;;16.10;99.90;;;;;;5114314;28;20044;-70
2023/06/24 02:14:39;;;;;;;0.30;0.30;;;16.10;99.90;;;;;;5115182;28;20472;-71
2023/06/24 02:17:07;;;;;;;0.32;0.32;;;16.10;99.90;;;;;;5115355;27;20050;-71
2023/06/24 02:19:35;;;;;;;0.50;0.50;;;16.00;99.90;;;;;;5115501;28;20040;-71
2023/06/24 02:22:02;;;;;;;0.40;0.40;;;16.10;99.90;;;;;;5115257;28;20078;-71
2023/06/24 02:24:29;;;;;;;0.40;0.40;;;16.00;99.90;;;;;;5115095;28;20062;-71
2023/06/24 02:26:57;;;;;;;0.50;0.50;;;16.00;99.90;;;;;;5115021;28;20201;-71
2023/06/24 02:29:25;;;;;;;0.30;0.30;;;15.90;99.90;;;;;;5115065;28;20049;-71
2023/06/24 02:31:51;;;;;;;0.38;0.38;;;15.90;99.90;;;;;;5115005;28;20071;-70
2023/06/24 02:34:16;;;;;;;0.40;0.40;;;15.90;99.90;;;;;;5115004;28;20075;-70
2023/06/24 02:36:42;;;;;;;0.40;0.40;;;15.90;99.90;;;;;;5114767;28;20028;-71
2023/06/24 02:39:08;;;;;;;0.40;0.40;;;15.90;99.90;;;;;;5114555;28;20035;-71
2023/06/24 02:41:33;;;;;;;0.40;0.40;;;15.90;99.90;;;;;;5114774;28;20044;-70
2023/06/24 02:43:59;;;;;;;0.40;0.40;;;15.80;99.90;;;;;;5114573;28;20383;-71
2023/06/24 02:46:29;;;;;;;0.60;0.60;;;15.80;99.90;;;;;;5114727;28;20210;-70
2023/06/24 02:48:56;;;;;;;0.52;0.52;;;15.80;99.90;;;;;;5114753;28;20177;-71
2023/06/24 02:51:22;;;;;;;0.57;0.57;;;15.80;99.90;;;;;;5113322;28;20356;-71
2023/06/24 02:53:48;;;;;;;0.50;0.50;;;15.80;99.90;;;;;;5114388;28;20046;-70
2023/06/24 02:56:14;;;;;;;0.50;0.50;;;15.80;99.90;;;;;;5114646;28;20047;-71
2023/06/24 02:58:40;;;;;;;0.40;0.40;;;15.80;99.90;;;;;;5115073;28;20371;-71
2023/06/24 03:01:08;;;;;;;0.67;0.67;;;15.80;99.90;;;;;;5114926;28;20040;-71
2023/06/24 03:03:35;;;;;;;0.40;0.40;;;15.80;99.90;;;;;;5114397;28;20047;-71
2023/06/24 03:06:02;;;;;;;0.40;0.40;;;15.80;99.90;;;;;;5114113;28;20557;-71
2023/06/24 03:08:29;;;;;;;0.40;0.40;;;15.70;99.90;;;;;;5114248;28;20032;-71
2023/06/24 03:10:56;;;;;;;0.40;0.40;;;15.70;99.90;;;;;;5114274;28;20046;-70
2023/06/24 03:13:22;;;;;;;0.55;0.55;;;15.70;99.90;;;;;;5114321;28;20104;-71
2023/06/24 03:15:47;;;;;;;0.50;0.50;;;15.70;99.90;;;;;;5114545;28;20043;-70
2023/06/24 03:18:13;;;;;;;0.40;0.40;;;15.60;99.90;;;;;;5114236;28;20493;-71
2023/06/24 03:20:39;;;;;;;0.40;0.40;;;15.70;99.90;;;;;;5114266;28;20036;-71
2023/06/24 03:23:08;;;;;;;0.40;0.40;;;15.70;99.90;;;;;;5114215;28;20367;-71
2023/06/24 03:25:35;;;;;;;0.40;0.40;;;15.70;99.90;;;;;;5114810;28;20038;-70
2023/06/24 03:28:03;;;;;;;0.40;0.40;;;15.70;99.90;;;;;;5114075;28;20046;-70
2023/06/24 03:30:29;;;;;;;0.40;0.40;;;15.70;99.90;;;;;;5114133;28;20464;-71
2023/06/24 03:32:55;;;;;;;0.43;0.43;;;15.70;99.90;;;;;;5113841;28;20439;-70
2023/06/24 03:35:22;;;;;;;0.40;0.40;;;15.70;99.90;;;;;;5113976;28;20039;-71
2023/06/24 03:37:47;;;;;;;;;;;15.70;99.90;;;;;;5114442;28;20036;-70
2023/06/24 03:40:13;;;;;;;0.40;0.40;;;15.70;99.90;;;;;;5113977;28;19969;-70
2023/06/24 03:42:39;;;;;;;0.50;0.50;;;15.70;99.90;;;;;;5114443;28;20040;-70
2023/06/24 03:45:05;;;;;;;0.50;0.50;;;15.70;99.90;;;;;;5113957;28;20181;-71
2023/06/24 03:47:30;;;;;;;0.50;0.50;;;15.70;99.90;;;;;;5113809;28;20042;-71
2023/06/24 03:49:56;;;;;;;0.50;0.50;;;15.70;99.90;;;;;;5113988;28;20126;-70
2023/06/24 03:52:21;;;;;;;1.90;1.80;;;15.70;99.90;;;;;;5117925;28;20039;-71
2023/06/24 03:54:47;;;;;;;0.50;0.50;;;15.80;99.90;;;;;;5118159;28;20035;-71
2023/06/24 03:57:13;;;;;;;0.40;0.40;;;15.80;99.90;;;;;;5118360;28;20471;-71
2023/06/24 03:59:39;;;;;;;0.50;0.50;;;15.80;99.90;;;;;;5118083;28;20036;-71
2023/06/24 04:02:08;;;;;;;0.40;0.40;;;15.90;99.90;;;;;;5118041;28;20039;-70
2023/06/24 04:04:35;;;;;;;0.40;0.40;;;15.90;99.90;;;;;;5117781;28;20078;-70
2023/06/24 04:07:01;;;;;;;0.40;0.40;;;16.00;99.90;;;;;;5117924;28;20050;-71
2023/06/24 04:09:26;;;;;;;0.60;0.60;;;16.00;99.90;;;;;;5117922;28;20456;-71
2023/06/24 04:11:52;;;;;;;0.60;0.60;;;16.10;99.90;;;;;;5116726;28;20036;-71
2023/06/24 04:14:18;;;;;;;0.40;0.40;;;16.10;99.90;;;;;;5117595;28;20031;-71
2023/06/24 04:16:43;;;;;;;0.40;0.40;;;16.10;99.90;;;;;;5118044;28;20122;-70
2023/06/24 04:19:09;;;;;;;0.40;0.40;;;16.20;99.90;;;;;;5117715;28;20043;-71
2023/06/24 04:21:34;;;;;;;0.40;0.40;;;16.20;99.90;;;;;;5117673;28;20092;-71
2023/06/24 04:24:00;;;;;;;0.40;0.40;;;16.20;99.90;;;;;;5117198;28;20027;-70
2023/06/24 04:26:26;;;;;;;0.50;0.50;;;16.20;99.90;;;;;;5117499;28;20092;-70
2023/06/24 04:28:51;;;;;;;0.40;0.40;;;16.30;99.90;;;;;;5117750;28;20472;-71
2023/06/24 04:31:17;;;;;;;0.40;0.40;;;16.30;99.90;;;;;;5117424;28;20065;-71
2023/06/24 04:33:43;;;;;;;0.50;0.50;;;16.40;99.90;;;;;;5117366;28;20470;-71
2023/06/24 04:36:09;;;;;;;0.40;0.40;;;16.40;99.90;;;;;;5117462;28;20039;-71
2023/06/24 04:38:34;;;;;;;0.40;0.40;;;16.50;99.90;;;;;;5117251;28;20084;-70
2023/06/24 04:41:00;;;;;;;0.40;0.40;;;16.50;99.90;;;;;;5117359;28;20466;-70
2023/06/24 04:43:27;;;;;;;0.50;0.50;;;16.60;99.90;;;;;;5117215;28;20044;-71
2023/06/24 04:45:55;;;;;;;0.40;0.40;;;16.60;99.90;;;;;;5117075;28;20081;-71
2023/06/24 04:48:22;;;;;;;0.40;0.40;;;16.70;99.90;;;;;;5117076;28;20061;-71
2023/06/24 04:50:48;;;;;;;0.60;0.60;;;16.70;99.90;;;;;;5117014;28;20043;-71
2023/06/24 04:53:14;;;;;;;0.50;0.50;;;16.80;99.90;;;;;;5116905;28;20039;-71
2023/06/24 04:55:40;;;;;;;0.60;0.60;;;16.80;99.90;;;;;;5117021;28;20044;-72
2023/06/24 04:58:05;;;;;;;1.07;0.97;;;16.90;99.90;;;;;;5116998;28;20360;-71
2023/06/24 05:00:31;;;;;;;0.40;0.40;;;17.00;99.90;;;;;;5116909;28;20435;-71
2023/06/24 05:02:56;;;;;;;0.40;0.40;;;17.10;99.90;;;;;;5116644;28;20040;-71
2023/06/24 05:05:22;;;;;;;0.57;0.57;;;17.20;99.90;;;;;;5116902;28;20048;-71
2023/06/24 05:07:48;;;;;;;0.43;0.43;;;17.30;99.90;;;;;;5116747;28;20460;-71
2023/06/24 05:10:14;;;;;;;1.00;1.00;;;17.40;99.90;;;;;;5117110;28;20467;-70
2023/06/24 05:12:40;;;;;;;1.50;1.13;;;17.50;99.90;;;;;;5116725;28;20480;-71
2023/06/24 05:15:06;;;;;;;0.40;0.40;;;17.60;99.90;;;;;;5116763;28;20092;-70
2023/06/24 05:17:31;;;;;;;0.40;0.40;;;17.70;99.90;;;;;;5116744;28;20035;-71
2023/06/24 05:19:57;;;;;;;0.57;0.57;;;17.80;99.90;;;;;;5116399;28;20042;-70
2023/06/24 05:22:23;;;;;;;0.40;0.40;;;18.00;99.90;;;;;;5116470;28;20046;-71
2023/06/24 05:24:48;;;;;;;0.80;0.80;;;18.00;99.90;;;;;;5116359;28;20043;-70
2023/06/24 05:27:14;;;;;;;0.33;0.33;;;18.20;99.90;;;;;;5116314;28;20032;-71
2023/06/24 05:29:42;;;;;;;0.40;0.40;;;18.50;99.90;;;;;;5116324;28;20040;-71
2023/06/24 05:32:08;;;;;;;0.38;0.38;;;18.70;99.90;;;;;;5116324;28;20387;-70
2023/06/24 05:34:34;;;;;;;0.63;0.63;;;19.00;99.90;;;;;;5116165;28;20046;-70
2023/06/24 05:37:00;;;;;;;0.30;0.30;;;19.30;99.90;;;;;;5116204;28;20057;-71
2023/06/24 05:39:26;;;;;;;0.40;0.40;;;19.60;99.90;;;;;;5116168;28;20118;-70
2023/06/24 05:41:52;;;;;;;0.40;0.40;;;19.90;99.90;;;;;;5116309;28;20049;-71
2023/06/24 05:44:18;;;;;;;0.50;0.50;;;20.00;99.90;;;;;;5116114;28;20031;-71
2023/06/24 05:46:44;;;;;;;0.85;0.85;;;20.20;99.90;;;;;;5115967;28;20035;-71
2023/06/24 05:49:10;;;;;;;0.45;0.45;;;20.40;99.90;;;;;;5115992;28;20043;-71
2023/06/24 05:51:36;;;;;;;1.07;0.63;;;20.60;99.90;;;;;;5115787;28;20471;-70
2023/06/24 05:54:01;;;;;;;0.30;0.30;;;20.80;99.90;;;;;;5115563;28;20035;-71
2023/06/24 05:56:27;;;;;;;0.30;0.30;;;21.10;99.90;;;;;;5116046;28;20122;-72
2023/06/24 05:58:53;;;;;;;0.30;0.30;;;21.20;99.90;;;;;;5115779;28;20035;-71
2023/06/24 06:01:18;;;;;;;0.50;0.50;;;21.30;99.90;;;;;;5115567;28;20035;-71
2023/06/24 06:03:44;;;;;;;0.40;0.40;;;21.50;99.90;;;;;;5115715;28;20036;-71
2023/06/24 06:06:09;;;;;;;0.50;0.50;;;21.70;99.90;;;;;;5116078;28;20043;-71
2023/06/24 06:08:35;;;;;;;0.50;0.50;;;21.70;99.90;;;;;;5115590;28;20081;-71
2023/06/24 06:11:03;;;;;;;0.40;0.40;;;21.80;99.90;;;;;;5114540;28;20035;-71
2023/06/24 06:13:29;;;;;;;0.30;0.30;;;21.90;99.90;;;;;;5114860;28;20039;-70
2023/06/24 06:15:56;;;;;;;0.80;0.80;;;22.00;99.90;;;;;;5115499;28;20491;-71
2023/06/24 06:18:22;;;;;;;0.40;0.40;;;22.10;99.90;;;;;;5115264;28;20075;-71
2023/06/24 06:20:47;;;;;;;0.30;0.30;;;22.30;99.90;;;;;;5115046;28;20439;-71
2023/06/24 06:23:13;;;;;;;0.70;0.70;;;22.50;99.90;;;;;;5115963;28;20092;-71
2023/06/24 06:25:38;;;;;;;0.40;0.40;;;22.60;99.90;;;;;;5115310;28;20536;-70
2023/06/24 06:28:04;;;;;;;0.67;0.50;;;22.60;99.90;;;;;;5115188;28;20036;-70
2023/06/24 06:30:30;;;;;;;2.47;1.27;;;22.50;99.90;;;;;;5114923;28;20093;-71
2023/06/24 06:32:56;;;;;;;0.50;0.50;;;22.60;99.90;;;;;;5115318;28;20066;-72
2023/06/24 06:35:21;;;;;;;0.30;0.30;;;22.60;99.90;;;;;;5114755;28;20043;-71
2023/06/24 06:37:52;;;;;;;2.83;1.40;;;22.60;99.90;;;;;;5113903;28;20113;-71
2023/06/24 06:40:18;;;;;;;0.30;0.30;;;22.70;99.90;;;;;;5114994;28;20092;-70
2023/06/24 06:42:44;;;;;;;1.35;0.95;;;22.80;99.90;;;;;;5113726;28;20122;-71
2023/06/24 06:45:10;;;;;;;0.40;0.40;;;22.80;99.90;;;;;;5114757;28;20089;-71
2023/06/24 06:47:35;;;;;;;0.38;0.38;;;22.70;99.90;;;;;;5114959;28;20420;-71
2023/06/24 06:50:01;;;;;;;0.30;0.30;;;22.70;99.90;;;;;;5114761;28;20039;-71
2023/06/24 06:52:28;;;;;;;0.30;0.30;;;22.90;99.90;;;;;;5114714;28;20036;-71
2023/06/24 06:54:54;;;;;;;0.82;0.63;;;22.90;99.90;;;;;;5114655;28;20050;-71
2023/06/24 06:57:19;;;;;;;0.40;0.40;;;22.90;99.90;;;;;;5114414;28;20475;-72
2023/06/24 06:59:45;;;;;;;0.30;0.30;;;23.10;99.90;;;;;;5114583;28;20050;-71
2023/06/24 07:02:11;;;;;;;0.50;0.50;;;23.20;99.90;;;;;;5114739;28;20383;-72
2023/06/24 07:04:36;;;;;;;0.30;0.30;;;23.30;99.90;;;;;;5114378;28;20036;-71
2023/06/24 07:07:02;;;;;;;0.50;0.50;;;23.40;99.90;;;;;;5114353;28;20043;-71
2023/06/24 07:09:28;;;;;;;0.67;0.40;;;23.60;99.90;;;;;;5114222;28;20556;-72
2023/06/24 07:11:54;;;;;;;0.57;0.55;;;23.60;99.90;;;;;;5114443;28;20281;-71
2023/06/24 07:14:19;;;;;;;0.47;0.47;;;23.60;99.90;;;;;;5114467;28;20045;-71
2023/06/24 07:16:45;;;;;;;0.20;0.20;;;23.70;99.90;;;;;;5114440;28;20467;-71
2023/06/24 07:19:11;;;;;;;0.30;0.30;;;23.80;99.90;;;;;;5114239;28;20452;-72
2023/06/24 07:21:37;;;;;;;0.30;0.30;;;24.00;99.90;;;;;;5114106;28;20035;-72
2023/06/24 07:24:03;;;;;;;1.75;0.98;;;24.10;99.90;;;;;;5114119;28;20043;-72
2023/06/24 07:26:30;;;;;;;0.95;0.93;;;24.20;99.90;;;;;;5113590;28;20039;-72
2023/06/24 07:28:59;;;;;;;0.30;0.30;;;24.30;99.90;;;;;;5114117;28;20077;-71
2023/06/24 07:31:25;;;;;;;0.30;0.30;;;24.40;99.90;;;;;;5114297;28;20372;-71
2023/06/24 07:33:51;;;;;;;0.30;0.30;;;24.40;99.90;;;;;;5114181;28;20035;-72
2023/06/24 07:36:16;;;;;;;0.60;0.60;;;24.50;99.90;;;;;;5113964;28;20378;-72
2023/06/24 07:38:42;;;;;;;0.73;0.73;;;24.60;99.90;;;;;;5114217;28;20043;-72
2023/06/24 07:41:08;;;;;;;0.37;0.37;;;24.60;99.90;;;;;;5114234;28;20044;-72
2023/06/24 07:43:33;;;;;;;0.40;0.40;;;24.70;99.90;;;;;;5114315;28;20514;-72
2023/06/24 07:45:59;;;;;;;0.50;0.50;;;24.70;99.90;;;;;;5113874;28;20027;-71
2023/06/24 07:48:25;;;;;;;0.50;0.50;;;24.80;99.90;;;;;;5112923;28;20185;-71
2023/06/24 07:50:50;;;;;;;0.30;0.30;;;24.90;99.90;;;;;;5113835;28;20046;-72
2023/06/24 07:53:16;;;;;;;0.30;0.30;;;25.00;99.90;;;;;;5113273;28;20348;-71
2023/06/24 07:55:41;;;;;;;0.30;0.30;;;25.10;99.90;;;;;;5113836;28;20464;-72
2023/06/24 07:58:07;;;;;;;0.30;0.30;;;25.10;99.90;;;;;;5113793;28;20046;-71
2023/06/24 08:00:33;;;;;;;0.30;0.30;;;25.20;99.90;;;;;;5113729;28;20044;-72
2023/06/24 08:02:59;;;;;;;0.30;0.30;;;25.20;99.90;;;;;;5113731;28;20062;-72
2023/06/24 08:05:25;;;;;;;0.40;0.40;;;25.20;99.90;;;;;;5113717;28;20155;-72
2023/06/24 08:07:52;;;;;;;3.65;0.98;;;25.30;99.90;;;;;;5113543;28;20123;-72
2023/06/24 08:10:18;;;;;;;0.68;0.60;;;25.50;99.90;;;;;;5113642;28;20549;-71
2023/06/24 08:12:43;;;;;;;0.30;0.30;;;25.70;99.90;;;;;;5113632;28;20046;-72
2023/06/24 08:15:10;;;;;;;0.50;0.50;;;25.60;99.90;;;;;;5113709;28;20438;-72
2023/06/24 08:17:35;;;;;;;0.28;0.28;;;25.60;99.90;;;;;;5113677;28;20043;-72
2023/06/24 08:20:03;;;;;;;0.50;0.50;;;25.60;99.90;;;;;;5113542;28;20047;-72
2023/06/24 08:22:28;;;;;;;0.25;0.25;;;25.70;99.90;;;;;;5114043;28;20098;-72
2023/06/24 08:24:54;;;;;;;0.43;0.43;;;25.90;99.90;;;;;;5113569;28;20487;-71
2023/06/24 08:27:20;;;;;;;0.23;0.23;;;26.10;99.90;;;;;;5113393;28;20455;-72
2023/06/24 08:29:45;;;;;;;0.40;0.40;;;26.10;99.90;;;;;;5113343;28;20039;-72
2023/06/24 08:32:11;;;;;;;0.30;0.30;;;26.10;99.90;;;;;;5113435;28;20356;-72
2023/06/24 08:34:36;;;;;;;0.20;0.20;;;26.10;99.90;;;;;;5113159;28;20490;-72
2023/06/24 08:37:02;;;;;;;0.30;0.30;;;26.10;99.90;;;;;;5114989;28;20097;-72
2023/06/24 08:39:28;;;;;;;0.40;0.40;;;26.20;99.90;;;;;;5117605;28;20040;-72
2023/06/24 08:41:53;;;;;;;0.63;0.60;;;26.30;99.90;;;;;;5117282;28;20416;-72
2023/06/24 08:44:19;;;;;;;0.80;0.73;;;26.40;99.90;;;;;;5117386;28;20043;-72
2023/06/24 08:46:45;;;;;;;0.50;0.50;;;26.50;99.90;;;;;;5117041;28;20039;-72
2023/06/24 08:49:24;;;;;;;0.75;0.75;;;26.60;99.90;;;;;;5117057;28;20081;-72
2023/06/24 08:51:55;;;;;;;0.40;0.40;;;26.70;99.90;;;;;;5117081;28;20494;-71
2023/06/24 08:54:22;;;;;;;0.20;0.20;;;26.90;99.90;;;;;;5117043;28;20040;-71
2023/06/24 08:56:48;;;;;;;0.40;0.40;;;27.00;99.90;;;;;;5116933;27;20036;-72
2023/06/24 08:59:19;;;;;;;0.52;0.50;;;27.20;99.90;;;;;;5116931;28;20054;-72
2023/06/24 09:01:45;;;;;;;0.55;0.55;;;27.30;99.90;;;;;;5116969;28;20049;-72
2023/06/24 09:04:11;;;;;;;0.45;0.45;;;27.50;99.90;;;;;;5116708;28;20124;-72
2023/06/24 09:06:37;;;;;;;0.30;0.30;;;27.50;99.90;;;;;;5116392;28;20087;-71
2023/06/24 09:09:02;;;;;;;0.40;0.40;;;27.60;99.90;;;;;;5116097;28;20043;-71
2023/06/24 09:11:28;;;;;;;0.30;0.30;;;27.70;99.90;;;;;;5115664;28;20281;-72
2023/06/24 09:13:58;;;;;;;0.45;0.45;;;27.90;99.90;;;;;;5116667;28;20039;-72
2023/06/24 09:16:29;;;;;;;0.40;0.40;;;27.80;99.90;;;;;;5116597;28;20040;-72
2023/06/24 09:18:55;;;;;;;0.70;0.70;;;27.90;99.90;;;;;;5116237;28;20055;-72
2023/06/24 09:21:30;;;;;;;0.40;0.40;;;27.90;99.90;;;;;;5116480;28;20477;-71
2023/06/24 09:23:57;;;;;;;0.50;0.50;;;27.90;99.90;;;;;;5116634;28;20040;-73
2023/06/24 09:26:26;;;;;;;0.30;0.30;;;27.80;99.90;;;;;;5115143;28;20046;-72
2023/06/24 09:28:54;;;;;;;0.50;0.50;;;27.80;99.90;;;;;;5116282;28;20035;-72
2023/06/24 09:31:19;;;;;;;1.80;0.90;;;27.60;99.90;;;;;;5116233;28;20103;-72
2023/06/24 09:33:46;;;;;;;0.40;0.40;;;27.70;99.90;;;;;;5116203;28;20051;-72
2023/06/24 09:36:13;;;;;;;0.30;0.30;;;27.80;99.90;;;;;;5116134;28;20323;-71
2023/06/24 09:38:41;;;;;;;0.30;0.30;;;27.90;99.90;;;;;;5116374;28;20043;-71
2023/06/24 09:41:08;;;;;;;0.35;0.35;;;28.10;99.90;;;;;;5116066;28;20043;-72
2023/06/24 09:43:39;;;;;;;0.40;0.40;;;28.10;99.90;;;;;;5116068;28;20124;-72
2023/06/24 09:46:05;;;;;;;0.50;0.50;;;28.10;99.90;;;;;;5116378;28;20044;-72
2023/06/24 09:48:32;;;;;;;0.30;0.30;;;28.00;99.90;;;;;;5114961;28;20075;-72
2023/06/24 09:51:01;;;;;;;0.30;0.30;;;28.00;99.90;;;;;;5115938;28;20040;-71
2023/06/24 09:53:32;;;;;;;0.28;0.25;;;28.10;99.90;;;;;;5115818;28;20043;-72
2023/06/24 09:56:01;;;;;;;0.30;0.30;;;28.10;99.80;;;;;;5116042;28;20352;-72
2023/06/24 09:58:31;;;;;;;0.20;0.20;;;28.00;99.90;;;;;;5115605;28;20481;-72
2023/06/24 10:01:01;;;;;;;0.30;0.30;;;28.10;99.90;;;;;;5115717;28;20118;-71
2023/06/24 10:03:27;;;;;;;0.20;0.20;;;28.00;99.90;;;;;;5116363;28;20488;-72
2023/06/24 10:05:53;;;;;;;0.93;0.90;;;28.30;99.90;;;;;;5115264;28;20077;-72
2023/06/24 10:08:19;;;;;;;0.20;0.20;;;28.40;99.90;;;;;;5115945;28;20348;-72
2023/06/24 10:10:46;;;;;;;0.40;0.40;;;28.50;99.40;;;;;;5115514;28;20428;-72
2023/06/24 10:13:11;;;;;;;0.20;0.20;;;28.60;99.00;;;;;;5115569;28;20135;-72
2023/06/24 10:15:37;;;;;;;0.20;0.20;;;28.50;98.70;;;;;;5115373;28;20038;-72
2023/06/24 10:18:23;;;;;;;0.57;0.57;;;28.40;98.00;;;;;;5115623;27;20045;-73
2023/06/24 10:20:49;;;;;;;0.30;0.30;;;28.40;98.10;;;;;;5115399;28;20075;-73
2023/06/24 10:23:14;;;;;;;0.40;0.40;;;28.50;99.10;;;;;;5115314;28;20411;-72
2023/06/24 10:25:40;;;;;;;0.20;0.20;;;28.50;98.90;;;;;;5115037;28;20281;-71
2023/06/24 10:28:06;;;;;;;0.30;0.30;;;28.50;96.90;;;;;;5115090;28;20110;-71
2023/06/24 10:30:33;;;;;;;0.20;0.20;;;28.50;98.60;;;;;;5114979;28;20307;-72
2023/06/24 10:32:58;;;;;;;0.35;0.35;;;28.60;97.80;;;;;;5115113;28;20051;-72
2023/06/24 10:35:32;;;;;;;0.57;0.30;;;28.70;96.20;;;;;;5115050;28;20463;-73
2023/06/24 10:37:59;;;;;;;0.30;0.30;;;28.70;96.90;;;;;;5114715;28;20035;-73
2023/06/24 10:40:38;;;;;;;0.20;0.20;;;28.80;97.20;;;;;;5114982;28;20035;-72
2023/06/24 10:43:23;;;;;;;0.20;0.20;;;28.90;96.80;;;;;;5114879;28;20039;-72
2023/06/24 10:45:54;;;;;;;0.20;0.20;;;28.90;96.00;;;;;;5114884;28;20040;-73
2023/06/24 10:48:21;;;;;;;0.40;0.40;;;28.90;98.00;;;;;;5114783;28;20047;-72
2023/06/24 10:50:49;;;;;;;0.20;0.20;;;29.10;98.40;;;;;;5114429;28;20094;-72
2023/06/24 10:53:15;;;;;;;0.20;0.20;;;29.20;97.40;;;;;;5114584;28;20082;-72
2023/06/24 10:55:41;;;;;;;0.22;0.22;;;29.30;98.70;;;;;;5114597;28;20078;-72
2023/06/24 10:58:12;;;;;;;;;;;29.50;97.90;;;;;;5115268;28;20050;-72
2023/06/24 11:00:37;;;;;;;0.85;0.45;;;29.40;96.60;;;;;;5114335;28;19916;-72
2023/06/24 11:03:11;;;;;;;0.40;0.40;;;29.20;96.50;;;;;;5114473;28;20536;-72
2023/06/24 11:05:44;;;;;;;0.20;0.20;;;29.20;96.60;;;;;;5114328;28;20048;-72
2023/06/24 11:08:10;;;;;;;0.45;0.40;;;29.30;96.60;;;;;;5115008;28;20114;-72
2023/06/24 11:10:46;;;;;;;0.20;0.20;;;29.40;95.20;;;;;;5114298;28;20535;-72
2023/06/24 11:13:13;;;;;;;0.50;0.50;;;29.40;95.30;;;;;;5114438;28;20042;-73
2023/06/24 11:15:40;;;;;;;0.20;0.20;;;29.50;96.20;;;;;;5114237;28;20036;-72
2023/06/24 11:18:10;;;;;;;0.30;0.30;;;29.50;95.70;;;;;;5114271;28;20472;-72
2023/06/24 11:20:39;;;;;;;0.20;0.20;;;29.70;95.80;;;;;;5113953;28;20098;-72
2023/06/24 11:23:11;;;;;;;0.50;0.50;;;29.80;96.50;;;;;;5114316;28;20035;-72
2023/06/24 11:25:42;;;;;;;0.20;0.20;;;29.80;94.90;;;;;;5114071;28;20031;-72
2023/06/24 11:28:18;;;;;;;0.30;0.30;;;29.80;95.80;;;;;;5114055;28;20461;-72
2023/06/24 11:30:43;;;;;;;0.55;0.40;;;29.60;94.30;;;;;;5114080;28;20036;-72
2023/06/24 11:33:09;;;;;;;0.40;0.40;;;29.70;94.70;;;;;;5114073;28;20074;-72
2023/06/24 11:35:36;;;;;;;0.30;0.30;;;29.60;94.90;;;;;;5114016;28;20042;-73
2023/06/24 11:38:02;;;;;;;0.20;0.20;;;29.70;94.20;;;;;;5113986;28;20039;-72
2023/06/24 11:40:32;;;;;;;0.20;0.20;;;29.80;95.20;;;;;;5114009;28;20042;-72
2023/06/24 11:43:00;;;;;;;0.20;0.20;;;29.90;94.60;;;;;;5113916;28;20039;-72
2023/06/24 11:45:26;;;;;;;0.30;0.30;;;29.90;95.30;;;;;;5112681;28;20039;-72
2023/06/24 11:47:52;;;;;;;0.30;0.30;;;30.10;94.60;;;;;;5114314;28;20112;-72
2023/06/24 11:50:18;;;;;;;;;;;30.10;93.60;;;;;;5114031;28;20047;-73
2023/06/24 11:52:44;;;;;;;0.20;0.20;;;30.20;94.40;;;;;;5114060;28;19915;-72
2023/06/24 11:55:17;;;;;;;0.30;0.30;;;30.10;94.50;;;;;;5113980;28;20044;-73
2023/06/24 11:57:51;;;;;;;0.30;0.30;;;30.20;94.20;;;;;;5113731;28;20039;-72
2023/06/24 12:00:30;;;;;;;0.30;0.30;;;30.20;93.60;;;;;;5113616;28;20467;-73
2023/06/24 12:02:57;;;;;;;0.75;0.75;;;30.40;93.90;;;;;;5113806;28;20047;-72
2023/06/24 12:05:28;;;;;;;1.55;0.70;;;30.30;93.40;;;;;;5113724;28;20132;-72
2023/06/24 12:08:08;;;;;;;1.13;1.10;;;30.30;92.90;;;;;;5113626;28;20039;-72
2023/06/24 12:10:35;;;;;;;0.20;0.20;;;30.30;93.80;;;;;;5112499;28;20419;-72
2023/06/24 12:13:02;;;;;;;0.68;0.40;;;30.50;92.90;;;;;;5115979;28;20065;-72
2023/06/24 12:15:28;;;;;;;0.20;0.20;;;30.50;94.30;;;;;;5118030;28;20071;-73
2023/06/24 12:17:54;;;;;;;0.30;0.30;;;30.50;92.60;;;;;;5117683;28;20035;-73
2023/06/24 12:20:20;;;;;;;0.50;0.50;;;30.50;93.40;;;;;;5117937;28;20055;-73
2023/06/24 12:22:48;;;;;;;0.20;0.20;;;30.60;92.90;;;;;;5116431;28;20035;-73
2023/06/24 12:25:13;;;;;;;0.30;0.30;;;30.50;94.20;;;;;;5118157;28;20066;-73
2023/06/24 12:27:41;;;;;;;0.28;0.28;;;30.40;93.60;;;;;;5117447;28;20459;-73
2023/06/24 12:30:08;;;;;;;0.20;0.20;;;30.10;93.50;;;;;;5117375;28;20089;-72
2023/06/24 12:32:33;;;;;;;;;;;30.10;93.50;;;;;;5117819;28;20036;-72
2023/06/24 12:34:59;;;;;;;0.20;0.20;;;30.10;92.90;;;;;;5117140;28;20371;-73
2023/06/24 12:37:24;;;;;;;0.20;0.20;;;30.10;93.30;;;;;;5117314;28;20039;-72
2023/06/24 12:39:53;;;;;;;0.40;0.40;;;30.20;93.50;;;;;;5117212;28;20080;-72
2023/06/24 12:42:19;;;;;;;0.20;0.20;;;30.40;94.50;;;;;;5115935;28;20532;-72
2023/06/24 12:44:44;;;;;;;0.43;0.43;;;30.50;94.10;;;;;;5117137;28;20047;-73
2023/06/24 12:47:10;;;;;;;0.57;0.40;;;30.60;93.50;;;;;;5117289;28;20461;-72
2023/06/24 12:49:35;;;;;;;0.30;0.30;;;30.60;93.80;;;;;;5117162;28;20036;-72